Time;durP1;ratioP1;P1;durP2;ratioP2;P2;SDS_P1;SDS_P2;PMS_P1;PMS_P2;Temp;Humidity;BMP_temperature;BMP_pressure;BME280_temperature;BME280_humidity;BME280_pressure;Samples;Min_cycle;Max_cycle;Signal;HPM_P1;HPM_P2
2022/12/11 00:01:41;;;;;;;;;;;;;;;0.72;100.00;99644.25;5007430;28;19964;-83
2022/12/11 00:04:06;;;;;;;;;;;;;;;0.82;100.00;99639.88;5007401;28;19925;-83
2022/12/11 00:06:32;;;;;;;;;;;;;;;0.78;100.00;99635.50;5009599;28;19909;-83
2022/12/11 00:08:57;;;;;;;;;;;;;;;0.77;100.00;99641.63;5008130;28;19944;-83
2022/12/11 00:11:22;;;;;;;;;;;;;;;0.76;100.00;99635.50;5008994;28;19910;-82
2022/12/11 00:13:48;;;;;;;;;;;;;;;0.74;100.00;99644.22;5008269;28;19914;-83
2022/12/11 00:16:13;;;;;;;;;;;;;;;0.67;100.00;99639.84;4989688;28;19910;-83
2022/12/11 00:18:38;;;;;;;;;;;;;;;0.58;100.00;99632.88;4992772;28;19917;-83
2022/12/11 00:21:05;;;;;;;;;;;;;;;0.55;100.00;99632.00;5028037;28;19913;-82
2022/12/11 00:23:30;;;;;;;;;;;;;;;0.51;100.00;99635.50;5023681;28;19980;-82
2022/12/11 00:25:56;;;;;;;;;;;;;;;0.40;100.00;99632.84;5033321;28;19909;-82
2022/12/11 00:28:22;;;;;;;;;;;;;;;0.31;100.00;99640.69;5021003;28;19904;-82
2022/12/11 00:30:47;;;;;;;;;;;;;;;0.21;100.00;99644.16;5031849;28;20413;-81
2022/12/11 00:33:13;;;;;;;;;;;;;;;0.15;100.00;99640.66;5031661;28;19909;-82
2022/12/11 00:35:39;;;;;;;;;;;;;;;0.07;100.00;99642.38;5035249;28;19917;-82
2022/12/11 00:38:05;;;;;;;;;;;;;;;-0.03;100.00;99639.72;5018545;28;19893;-82
2022/12/11 00:40:32;;;;;;;;;;;;;;;-0.08;100.00;99638.81;5035519;28;19901;-82
2022/12/11 00:42:58;;;;;;;;;;;;;;;-0.10;100.00;99643.16;5039443;28;20565;-81
2022/12/11 00:45:23;;;;;;;;;;;;;;;-0.11;100.00;99641.44;5026315;28;19902;-81
2022/12/11 00:47:48;;;;;;;;;;;;;;;-0.14;100.00;99638.81;5013974;28;19910;-81
2022/12/11 00:50:13;;;;;;;;;;;;;;;-0.15;100.00;99647.50;5014519;28;19914;-81
2022/12/11 00:52:39;;;;;;;;;;;;;;;-0.16;100.00;99648.38;5035945;28;20186;-81
2022/12/11 00:55:05;;;;;;;;;;;;;;;-0.18;100.00;99649.22;5036866;28;19913;-81
2022/12/11 00:57:30;;;;;;;;;;;;;;;-0.16;100.00;99648.38;5018259;28;19917;-81
2022/12/11 00:59:55;;;;;;;;;;;;;;;-0.16;100.00;99657.94;5022997;28;19949;-82
2022/12/11 01:02:20;;;;;;;;;;;;;;;-0.13;100.00;99653.63;5036647;28;19912;-81
2022/12/11 01:04:48;;;;;;;;;;;;;;;-0.15;100.00;99655.34;5022289;28;19918;-81
2022/12/11 01:07:14;;;;;;;;;;;;;;;-0.16;100.00;99657.94;5036393;28;19949;-81
2022/12/11 01:12:23;;;;;;;;;;;;;;;-0.17;100.00;99662.34;5037706;28;19956;-81
2022/12/11 01:14:48;;;;;;;;;;;;;;;-0.17;100.00;99671.91;5035453;28;19902;-81
2022/12/11 01:17:14;;;;;;;;;;;;;;;-0.18;100.00;99671.00;5037285;28;19928;-81
2022/12/11 01:19:39;;;;;;;;;;;;;;;-0.21;100.00;99671.00;5035653;28;19917;-81
2022/12/11 01:22:05;;;;;;;;;;;;;;;-0.24;100.00;99671.00;5019475;28;19929;-81
2022/12/11 01:24:30;;;;;;;;;;;;;;;-0.24;100.00;99675.34;5017835;28;19910;-81
2022/12/11 01:26:55;;;;;;;;;;;;;;;-0.26;100.00;99683.19;5018071;28;19941;-81
2022/12/11 01:29:20;;;;;;;;;;;;;;;-0.29;100.00;99677.94;5023369;28;20002;-81
2022/12/11 01:31:46;;;;;;;;;;;;;;;-0.32;100.00;99688.38;5033378;28;19957;-81
2022/12/11 01:34:11;;;;;;;;;;;;;;;-0.36;100.00;99685.72;5029117;23;19937;-67
2022/12/11 01:36:36;;;;;;;;;;;;;;;-0.37;100.00;99684.88;5033918;28;20015;-68
2022/12/11 01:39:02;;;;;;;;;;;;;;;-0.36;100.00;99690.94;5032551;28;19909;-68
2022/12/11 01:41:27;;;;;;;;;;;;;;;-0.35;100.00;99688.38;5033360;28;19920;-68
2022/12/11 01:43:56;;;;;;;;;;;;;;;-0.36;100.00;99690.94;5032615;28;19917;-68
2022/12/11 01:46:22;;;;;;;;;;;;;;;-0.43;100.00;99689.19;5033082;28;19987;-68
2022/12/11 01:48:47;;;;;;;;;;;;;;;-0.50;100.00;99693.50;5034366;28;20396;-68
2022/12/11 01:51:13;;;;;;;;;;;;;;;-0.53;100.00;99698.69;5033198;28;19913;-68
2022/12/11 01:53:41;;;;;;;;;;;;;;;-0.52;100.00;99700.44;5035677;28;20054;-67
2022/12/11 01:56:07;;;;;;;;;;;;;;;-0.53;100.00;99697.84;5033316;28;20003;-68
2022/12/11 01:58:34;;;;;;;;;;;;;;;-0.55;100.00;99695.22;5034630;28;20059;-68
2022/12/11 02:01:01;;;;;;;;;;;;;;;-0.57;100.00;99696.94;5036303;28;19920;-68
2022/12/11 02:03:26;;;;;;;;;;;;;;;-0.61;100.00;99699.53;5029653;28;20277;-68
2022/12/11 02:05:52;;;;;;;;;;;;;;;-0.68;100.00;99698.63;5032932;28;19913;-68
2022/12/11 02:08:17;;;;;;;;;;;;;;;-0.72;100.00;99699.44;5046991;28;19986;-68
2022/12/11 02:10:48;;;;;;;;;;;;;;;-0.75;100.00;99696.81;5051683;28;19932;-68
2022/12/11 02:13:29;;;;;;;;;;;;;;;-0.78;100.00;99707.25;5045361;28;19999;-68
2022/12/11 02:15:54;;;;;;;;;;;;;;;-0.79;100.00;99710.69;5032191;28;20351;-68
2022/12/11 02:18:37;;;;;;;;;;;;;;;-0.81;100.00;99708.94;5033211;28;19999;-68
2022/12/11 02:21:09;;;;;;;;;;;;;;;-0.83;100.00;99719.38;5032273;28;19913;-68
2022/12/11 02:23:37;;;;;;;;;;;;;;;-0.84;100.00;99722.84;5032600;28;19944;-68
2022/12/11 02:26:03;;;;;;;;;;;;;;;-0.83;100.00;99719.38;5032328;28;19942;-68
2022/12/11 02:28:31;;;;;;;;;;;;;;;-0.78;100.00;99716.78;5034410;28;19922;-69
2022/12/11 02:30:59;;;;;;;;;;;;;;;-0.71;100.00;99714.22;5034616;28;19979;-68
2022/12/11 02:33:32;;;;;;;;;;;;;;;-0.62;100.00;99706.47;5032143;28;19913;-69
2022/12/11 02:35:59;;;;;;;;;;;;;;;-0.53;100.00;99706.53;5038257;28;19921;-69
2022/12/11 02:38:28;;;;;;;;;;;;;;;-0.41;100.00;99708.34;5045006;28;19972;-69
2022/12/11 02:40:55;;;;;;;;;;;;;;;-0.30;100.00;99711.91;5017613;28;19909;-69
2022/12/11 02:43:22;;;;;;;;;;;;;;;-0.25;100.00;99705.81;5012407;28;19913;-69
2022/12/11 02:45:49;;;;;;;;;;;;;;;-0.24;100.00;99707.59;5012652;28;19909;-69
2022/12/11 02:48:16;;;;;;;;;;;;;;;-0.19;100.00;99703.25;5034464;28;19968;-69
2022/12/11 02:50:42;;;;;;;;;;;;;;;-0.12;100.00;99702.44;5031940;28;20400;-69
2022/12/11 02:53:09;;;;;;;;;;;;;;;-0.04;100.00;99705.94;5032034;28;19916;-70
2022/12/11 02:55:35;;;;;;;;;;;;;;;0.00;100.00;99702.47;5032145;28;19909;-70
2022/12/11 02:58:12;;;;;;;;;;;;;;;0.11;100.00;99706.84;5034294;28;19913;-70
2022/12/11 03:00:38;;;;;;;;;;;;;;;0.20;100.00;99705.16;5031580;28;20005;-70
2022/12/11 03:03:03;;;;;;;;;;;;;;;0.27;100.00;99706.03;5033024;28;19948;-69
2022/12/11 03:05:29;;;;;;;;;;;;;;;0.31;100.00;99713.03;5033777;28;20390;-70
2022/12/11 03:07:55;;;;;;;;;;;;;;;0.36;100.00;99698.25;5032198;28;19913;-70
2022/12/11 03:10:20;;;;;;;;;;;;;;;0.46;100.00;99694.78;5033816;28;19967;-70
2022/12/11 03:12:48;;;;;;;;;;;;;;;0.47;100.00;99694.78;5031962;28;20039;-69
2022/12/11 03:15:15;;;;;;;;;;;;;;;0.52;100.00;99697.41;5031885;28;19917;-70
2022/12/11 03:17:40;;;;;;;;;;;;;;;0.55;100.00;99692.16;5033980;28;19913;-69
2022/12/11 03:20:08;;;;;;;;;;;;;;;0.59;100.00;99701.78;5032044;28;20499;-70
2022/12/11 03:22:43;;;;;;;;;;;;;;;0.63;100.00;99700.91;5031951;28;19913;-70
2022/12/11 03:25:12;;;;;;;;;;;;;;;0.64;100.00;99707.91;5033955;28;19916;-70
2022/12/11 03:27:37;;;;;;;;;;;;;;;0.64;100.00;99705.28;5044016;28;19916;-70
2022/12/11 03:30:04;;;;;;;;;;;;;;;0.64;100.00;99702.66;5031535;28;19921;-70
2022/12/11 03:32:50;;;;;;;;;;;;;;;0.69;100.00;99703.56;5031556;28;19943;-70
2022/12/11 03:35:22;;;;;;;;;;;;;;;0.75;100.00;99706.16;5031548;28;19921;-70
2022/12/11 03:37:49;;;;;;;;;;;;;;;0.70;100.00;99706.16;5033730;28;19967;-70
2022/12/11 03:40:16;;;;;;;;;;;;;;;0.73;100.00;99713.13;5031689;28;19982;-70
2022/12/11 03:42:43;;;;;;;;;;;;;;;0.75;100.00;99707.03;5041264;28;19920;-70
2022/12/11 03:45:10;;;;;;;;;;;;;;;0.72;100.00;99708.78;5047368;28;19917;-70
2022/12/11 03:47:36;;;;;;;;;;;;;;;0.74;100.00;99707.91;5037226;28;20365;-70
2022/12/11 03:50:04;;;;;;;;;;;;;;;0.80;100.00;99707.03;5031284;28;19920;-70
2022/12/11 03:52:31;;;;;;;;;;;;;;;0.86;100.00;99707.91;5047502;28;19916;-70
2022/12/11 03:54:59;;;;;;;;;;;;;;;0.86;100.00;99707.03;5032280;28;19996;-70
2022/12/11 03:57:26;;;;;;;;;;;;;;;0.90;100.00;99700.94;5031465;28;20611;-70
2022/12/11 03:59:51;;;;;;;;;;;;;;;0.88;100.00;99702.69;5033008;28;19909;-70
2022/12/11 04:02:17;;;;;;;;;;;;;;;0.90;100.00;99693.09;5031341;28;20280;-71
2022/12/11 04:04:42;;;;;;;;;;;;;;;0.93;100.00;99693.09;5030696;28;19913;-70
2022/12/11 04:07:08;;;;;;;;;;;;;;;0.97;100.00;99687.00;5048232;28;19909;-70
2022/12/11 04:09:33;;;;;;;;;;;;;;;0.98;100.00;99686.13;5032129;28;19920;-70
2022/12/11 04:11:58;;;;;;;;;;;;;;;1.02;100.00;99696.59;5041608;28;19916;-70
2022/12/11 04:17:07;;;;;;;;;;;;;;;0.97;100.00;99684.38;5030795;28;19936;-71
2022/12/11 04:25:09;;;;;;;;;;;;;;;0.97;100.00;99689.63;4995443;28;19910;-71
2022/12/11 04:27:49;;;;;;;;;;;;;;;1.00;100.00;99692.22;5029308;28;19920;-71
2022/12/11 04:30:17;;;;;;;;;;;;;;;0.96;100.00;99686.13;5029514;28;19917;-70
2022/12/11 04:32:42;;;;;;;;;;;;;;;0.95;100.00;99678.25;5011603;28;19920;-70
2022/12/11 04:35:08;;;;;;;;;;;;;;;0.86;100.00;99684.38;5011402;28;19917;-70
2022/12/11 04:37:34;;;;;;;;;;;;;;;0.81;100.00;99678.25;5019581;28;20292;-70
2022/12/11 04:40:00;;;;;;;;;;;;;;;0.87;100.00;99680.00;5035643;28;19913;-70
2022/12/11 04:42:25;;;;;;;;;;;;;;;0.87;100.00;99680.84;5034820;28;20003;-71
2022/12/11 04:44:50;;;;;;;;;;;;;;;0.91;100.00;99676.50;5036965;28;19913;-71
2022/12/11 04:47:16;;;;;;;;;;;;;;;0.92;100.00;99678.28;5054804;28;19912;-71
2022/12/11 04:49:41;;;;;;;;;;;;;;;0.95;100.00;99673.03;5054589;28;19920;-71
2022/12/11 04:52:06;;;;;;;;;;;;;;;0.91;100.00;99671.25;5054842;28;19962;-71
2022/12/11 04:54:32;;;;;;;;;;;;;;;0.90;100.00;99677.38;5041875;28;20000;-70
2022/12/11 04:56:57;;;;;;;;;;;;;;;0.94;100.00;99679.16;5016603;28;19920;-71
2022/12/11 04:59:22;;;;;;;;;;;;;;;0.99;100.00;99680.88;5034578;28;19913;-71
2022/12/11 05:01:48;;;;;;;;;;;;;;;0.91;100.00;99676.50;5032929;28;19959;-71
2022/12/11 05:04:13;;;;;;;;;;;;;;;0.83;100.00;99683.47;5036200;28;19970;-71
2022/12/11 05:06:38;;;;;;;;;;;;;;;0.85;100.00;99681.75;5034521;28;20006;-71
2022/12/11 05:09:03;;;;;;;;;;;;;;;0.85;100.00;99681.75;5034797;28;20292;-71
2022/12/11 05:11:29;;;;;;;;;;;;;;;0.81;100.00;99675.63;5034408;28;19913;-71
2022/12/11 05:13:54;;;;;;;;;;;;;;;0.76;100.00;99682.59;5034391;28;20356;-71
2022/12/11 05:16:19;;;;;;;;;;;;;;;0.84;100.00;99664.31;5036028;28;20008;-71
2022/12/11 05:18:46;;;;;;;;;;;;;;;0.87;100.00;99664.31;5034111;28;19916;-71
2022/12/11 05:21:12;;;;;;;;;;;;;;;0.79;100.00;99660.81;5036333;28;20296;-71
2022/12/11 05:23:38;;;;;;;;;;;;;;;0.71;100.00;99657.31;5032739;28;19959;-71
2022/12/11 05:26:05;;;;;;;;;;;;;;;0.68;100.00;99652.06;5033941;28;19917;-71
2022/12/11 05:28:32;;;;;;;;;;;;;;;0.68;100.00;99652.94;5034254;28;19963;-72
2022/12/11 05:31:10;;;;;;;;;;;;;;;0.71;100.00;99637.22;5044691;28;20304;-71
2022/12/11 05:33:35;;;;;;;;;;;;;;;0.78;100.00;99643.34;5053796;28;19955;-71
2022/12/11 05:36:01;;;;;;;;;;;;;;;0.83;100.00;99636.38;5053396;28;20331;-71
2022/12/11 05:38:26;;;;;;;;;;;;;;;0.86;100.00;99633.75;5055006;28;19995;-71
2022/12/11 05:40:55;;;;;;;;;;;;;;;0.87;100.00;99635.50;5049003;28;19999;-71
2022/12/11 05:43:21;;;;;;;;;;;;;;;0.90;100.00;99635.50;5044859;28;19955;-71
2022/12/11 05:45:46;;;;;;;;;;;;;;;0.90;100.00;99632.88;5035393;28;19956;-71
2022/12/11 05:48:11;;;;;;;;;;;;;;;0.89;100.00;99628.53;5033612;28;19913;-71
2022/12/11 05:50:36;;;;;;;;;;;;;;;0.88;100.00;99629.38;5034307;28;20449;-71
2022/12/11 05:53:03;;;;;;;;;;;;;;;0.88;100.00;99622.41;5033599;28;19909;-71
2022/12/11 05:55:28;;;;;;;;;;;;;;;0.89;100.00;99623.28;5032145;28;19999;-72
2022/12/11 05:57:54;;;;;;;;;;;;;;;0.89;100.00;99618.06;5036455;28;20023;-72
2022/12/11 06:00:19;;;;;;;;;;;;;;;0.90;100.00;99625.03;5032889;28;19909;-71
2022/12/11 06:02:44;;;;;;;;;;;;;;;0.89;100.00;99623.28;5035465;28;20394;-71
2022/12/11 06:05:10;;;;;;;;;;;;;;;0.89;100.00;99624.16;5033487;28;19920;-71
2022/12/11 06:07:35;;;;;;;;;;;;;;;0.87;100.00;99620.66;5035326;28;19917;-71
2022/12/11 06:10:00;;;;;;;;;;;;;;;0.84;100.00;99617.19;5032593;28;19917;-71
2022/12/11 06:12:27;;;;;;;;;;;;;;;0.87;100.00;99627.66;5034347;28;19916;-68
2022/12/11 06:14:52;;;;;;;;;;;;;;;0.87;100.00;99622.41;5034335;28;19970;-71
2022/12/11 06:17:17;;;;;;;;;;;;;;;0.84;100.00;99614.56;5033085;28;19909;-71
2022/12/11 06:19:43;;;;;;;;;;;;;;;0.85;100.00;99618.94;5042672;28;19935;-71
2022/12/11 06:22:08;;;;;;;;;;;;;;;0.81;100.00;99612.81;5051526;28;19999;-71
2022/12/11 06:24:33;;;;;;;;;;;;;;;0.80;100.00;99615.44;5047349;28;19916;-71
2022/12/11 06:26:58;;;;;;;;;;;;;;;0.78;100.00;99617.16;5034388;28;20369;-71
2022/12/11 06:29:24;;;;;;;;;;;;;;;0.79;100.00;99613.69;5032207;28;19913;-71
2022/12/11 06:31:49;;;;;;;;;;;;;;;0.82;100.00;99618.94;5034460;28;20650;-71
2022/12/11 06:34:14;;;;;;;;;;;;;;;0.83;100.00;99620.66;5030867;28;19909;-71
2022/12/11 06:36:39;;;;;;;;;;;;;;;0.82;100.00;99618.94;5033911;28;19924;-71
2022/12/11 06:39:05;;;;;;;;;;;;;;;0.80;100.00;99621.56;5032183;28;19999;-71
2022/12/11 06:41:30;;;;;;;;;;;;;;;0.81;100.00;99622.41;5032335;28;19913;-71
2022/12/11 06:43:55;;;;;;;;;;;;;;;0.83;100.00;99620.66;5034131;28;19951;-71
2022/12/11 06:46:21;;;;;;;;;;;;;;;0.82;100.00;99616.31;5032484;28;19913;-71
2022/12/11 06:48:47;;;;;;;;;;;;;;;0.83;100.00;99625.91;5034562;28;20279;-71
2022/12/11 06:51:17;;;;;;;;;;;;;;;0.84;100.00;99622.44;5032125;28;19917;-71
2022/12/11 06:53:43;;;;;;;;;;;;;;;0.87;100.00;99619.81;5031429;28;19967;-71
2022/12/11 06:56:10;;;;;;;;;;;;;;;0.90;100.00;99622.41;5030074;28;19921;-71
2022/12/11 06:58:36;;;;;;;;;;;;;;;0.87;100.00;99622.41;5027773;28;19913;-71
2022/12/11 07:01:02;;;;;;;;;;;;;;;0.84;100.00;99623.28;5035647;28;20426;-71
2022/12/11 07:03:28;;;;;;;;;;;;;;;0.87;100.00;99622.41;5045775;28;20027;-71
2022/12/11 07:05:53;;;;;;;;;;;;;;;0.91;100.00;99632.88;5032142;28;20095;-71
2022/12/11 07:08:18;;;;;;;;;;;;;;;0.95;100.00;99633.75;5033918;28;19916;-71
2022/12/11 07:10:43;;;;;;;;;;;;;;;0.99;100.00;99633.75;5031993;28;19913;-71
2022/12/11 07:13:09;;;;;;;;;;;;;;;1.03;100.00;99639.84;5034184;28;19917;-71
2022/12/11 07:15:35;;;;;;;;;;;;;;;1.06;100.00;99629.38;5034090;28;20424;-71
2022/12/11 07:18:00;;;;;;;;;;;;;;;1.12;100.00;99632.84;5031906;28;19959;-71
2022/12/11 07:20:25;;;;;;;;;;;;;;;1.16;100.00;99628.50;5032629;28;19917;-71
2022/12/11 07:22:53;;;;;;;;;;;;;;;1.18;100.00;99630.25;5033501;28;19909;-71
2022/12/11 07:25:18;;;;;;;;;;;;;;;1.18;100.00;99630.25;5032026;28;19909;-71
2022/12/11 07:27:43;;;;;;;;;;;;;;;1.22;100.00;99625.84;5034087;28;20391;-71
2022/12/11 07:30:09;;;;;;;;;;;;;;;1.24;100.00;99629.34;5030366;28;20058;-71
2022/12/11 07:32:34;;;;;;;;;;;;;;;1.27;100.00;99635.47;5031784;28;20058;-71
2022/12/11 07:35:00;;;;;;;;;;;;;;;1.29;100.00;99638.94;5030084;28;20688;-71
2022/12/11 07:37:25;;;;;;;;;;;;;;;1.29;100.00;99630.22;5031222;28;20681;-71
2022/12/11 07:39:50;;;;;;;;;;;;;;;1.29;100.00;99640.69;5029245;28;20070;-70
2022/12/11 07:42:16;;;;;;;;;;;;;;;1.32;100.00;99643.31;5012069;28;19913;-70
2022/12/11 07:44:41;;;;;;;;;;;;;;;1.29;100.00;99632.84;5017772;28;19916;-71
2022/12/11 07:47:06;;;;;;;;;;;;;;;1.29;100.00;99638.94;5031624;28;20047;-70
2022/12/11 07:49:31;;;;;;;;;;;;;;;1.30;100.00;99639.84;5031105;28;20368;-70
2022/12/11 07:51:57;;;;;;;;;;;;;;;1.32;100.00;99640.69;5031644;28;19924;-70
2022/12/11 07:54:22;;;;;;;;;;;;;;;1.35;100.00;99640.69;5033611;28;19983;-70
2022/12/11 07:56:47;;;;;;;;;;;;;;;1.39;100.00;99642.41;5031313;28;20322;-70
2022/12/11 07:59:13;;;;;;;;;;;;;;;1.43;100.00;99643.28;5029818;28;19913;-70
2022/12/11 08:01:39;;;;;;;;;;;;;;;1.46;100.00;99641.53;5033744;28;19913;-70
2022/12/11 08:04:08;;;;;;;;;;;;;;;1.46;100.00;99652.03;5031571;28;19963;-70
2022/12/11 08:06:35;;;;;;;;;;;;;;;1.49;100.00;99640.66;5033668;28;19913;-70
2022/12/11 08:09:02;;;;;;;;;;;;;;;1.52;100.00;99646.75;5045057;28;19921;-70
2022/12/11 08:11:28;;;;;;;;;;;;;;;1.56;100.00;99653.75;5032075;28;19909;-72
2022/12/11 08:13:53;;;;;;;;;;;;;;;1.55;100.00;99657.22;5060964;28;20332;-72
2022/12/11 08:16:18;;;;;;;;;;;;;;;1.57;100.00;99650.25;5056849;28;20015;-71
2022/12/11 08:18:44;;;;;;;;;;;;;;;1.59;100.00;99651.13;5057743;28;20303;-70
2022/12/11 08:21:19;;;;;;;38.63;16.67;;;;;;;1.52;100.00;99636.28;5059374;28;20488;-70
2022/12/11 08:23:45;;;;;;;40.35;17.30;;;;;;;1.62;100.00;99658.06;5053356;28;20086;-71
2022/12/11 08:26:14;;;;;;;34.88;17.83;;;;;;;1.69;100.00;99655.44;5041622;28;20553;-70
2022/12/11 08:28:39;;;;;;;41.97;18.10;;;;;;;1.60;100.00;99655.47;5045285;28;20064;-69
2022/12/11 08:31:09;;;;;;;45.27;18.40;;;;;;;1.56;100.00;99658.09;5054962;28;20117;-71
2022/12/11 08:33:36;;;;;;;;;;;;;;;1.61;100.00;99656.34;5053768;28;20496;-71
2022/12/11 08:36:02;;;;;;;;;;;;;;;1.62;100.00;99655.47;5037564;28;19931;-69
2022/12/11 08:38:29;;;;;;;66.40;26.83;;;;;;;1.58;100.00;99653.75;5032068;28;20442;-70
2022/12/11 08:40:54;;;;;;;43.67;19.48;;;;;;;1.56;100.00;99661.59;5036479;28;20025;-71
2022/12/11 08:43:19;;;;;;;40.80;18.02;;;;;;;1.52;100.00;99661.59;5034356;28;20040;-70
2022/12/11 08:45:45;;;;;;;40.65;19.45;;;;;;;1.41;100.00;99635.44;5034361;28;20029;-70
2022/12/11 08:48:10;;;;;;;44.90;21.38;;;;;;;1.57;100.00;99650.25;5034436;28;20584;-68
2022/12/11 08:50:36;;;;;;;47.70;22.77;;;;;;;1.58;100.00;99638.00;5036257;28;20026;-71
2022/12/11 08:53:02;;;;;;;52.38;20.83;;;;;;;1.65;100.00;99632.75;5034283;28;20381;-70
2022/12/11 08:55:27;;;;;;;47.63;23.25;;;;;;;1.72;100.00;99644.94;5036222;28;20029;-71
2022/12/11 08:57:52;;;;;;;38.92;19.58;;;;;;;1.68;100.00;99651.06;5033676;28;20408;-70
2022/12/11 09:00:18;;;;;;;43.03;19.67;;;;;;;1.70;100.00;99649.31;5034829;28;20105;-70
2022/12/11 09:02:43;;;;;;;42.53;19.42;;;;;;;1.69;100.00;99646.72;5051896;28;20064;-71
2022/12/11 09:05:09;;;;;;;43.97;19.70;;;;;;;1.67;100.00;99644.09;5033874;28;20033;-70
2022/12/11 09:07:36;;;;;;;40.80;20.85;;;;;;;1.63;100.00;99625.78;5033954;28;20029;-70
2022/12/11 09:10:05;;;;;;;46.63;21.17;;;;;;;1.61;100.00;99623.16;5035560;28;20044;-70
2022/12/11 09:12:31;;;;;;;42.72;18.25;;;;;;;1.67;100.00;99635.34;5053763;28;20025;-70
2022/12/11 09:14:57;;;;;;;41.92;18.02;;;;;;;1.64;100.00;99620.53;5053802;28;20052;-70
2022/12/11 09:17:22;;;;;;;46.75;19.60;;;;;;;1.77;100.00;99637.06;5049745;28;20559;-70
2022/12/11 09:19:48;;;;;;;45.70;18.10;;;;;;;1.90;100.00;99634.41;5053155;28;20032;-70
2022/12/11 09:22:13;;;;;;;40.85;18.83;;;;;;;1.91;100.00;99623.00;5053086;28;20025;-70
2022/12/11 09:24:39;;;;;;;41.45;17.92;;;;;;;2.00;100.00;99636.09;5050078;28;20033;-70
2022/12/11 09:27:05;;;;;;;44.22;19.95;;;;;;;1.98;100.00;99637.84;5034482;28;20124;-70
2022/12/11 09:29:30;;;;;;;38.53;17.83;;;;;;;1.99;100.00;99639.63;5032800;28;20521;-70
2022/12/11 09:31:56;;;;;;;44.53;17.77;;;;;;;1.92;100.00;99632.66;5034786;28;20029;-70
2022/12/11 09:34:22;;;;;;;36.78;18.05;;;;;;;2.00;100.00;99637.84;5032943;28;20052;-70
2022/12/11 09:36:47;;;;;;;36.70;17.55;;;;;;;2.07;100.00;99632.56;5041579;28;20110;-67
2022/12/11 09:39:15;;;;;;;35.97;19.30;;;;;;;2.12;100.00;99620.31;5052048;28;20025;-68
2022/12/11 09:42:09;;;;;;;42.85;20.30;;;;;;;2.20;100.00;99621.13;5049276;28;20029;-67
2022/12/11 09:44:46;;;;;;;40.92;18.35;;;;;;;2.14;100.00;99618.53;5049941;28;20493;-67
2022/12/11 09:47:20;;;;;;;41.47;19.33;;;;;;;2.16;100.00;99616.78;5047870;28;20025;-68
2022/12/11 09:49:50;;;;;;;41.92;17.67;;;;;;;2.14;100.00;99615.91;5030423;28;20457;-67
2022/12/11 09:52:31;;;;;;;37.00;18.05;;;;;;;2.20;100.00;99602.78;5033833;28;20033;-67
2022/12/11 09:55:01;;;;;;;40.35;21.65;;;;;;;2.31;100.00;99613.19;5031912;28;20022;-68
2022/12/11 09:57:57;;;;;;;40.83;18.13;;;;;;;2.32;100.00;99612.31;5034326;28;20481;-67
2022/12/11 10:00:35;;;;;;;36.80;17.00;;;;;;;2.36;100.00;99599.16;5031640;28;20033;-67
2022/12/11 10:03:07;;;;;;;33.10;17.55;;;;;;;2.46;100.00;99595.59;5029653;28;20036;-68
2022/12/11 10:05:41;;;;;;;32.10;16.25;;;;;;;2.52;98.99;99595.53;5036995;28;20029;-67
2022/12/11 10:08:28;;;;;;;31.92;16.70;;;;;;;2.44;98.42;99588.59;5032454;28;20029;-67
2022/12/11 10:11:02;;;;;;;31.55;14.18;;;;;;;2.50;97.47;99586.81;5032346;28;20057;-67
2022/12/11 10:13:45;;;;;;;30.38;14.13;;;;;;;2.31;96.40;99571.19;5031460;28;20028;-67
2022/12/11 10:16:18;;;;;;;30.60;14.88;;;;;;;2.42;96.70;99572.88;5031576;28;20025;-68
2022/12/11 10:18:43;;;;;;;31.90;13.97;;;;;;;2.56;96.50;99571.03;5032828;28;20502;-67
2022/12/11 10:21:10;;;;;;;25.98;14.63;;;;;;;2.52;95.18;99569.28;5031706;28;20264;-69
2022/12/11 10:23:47;;;;;;;29.27;14.13;;;;;;;2.43;93.73;99568.50;5038638;28;20028;-70
2022/12/11 10:26:18;;;;;;;27.65;14.88;;;;;;;2.49;93.81;99564.06;5051597;28;20025;-70
2022/12/11 10:28:43;;;;;;;27.42;13.77;;;;;;;2.51;94.18;99556.19;5025290;28;20571;-70
2022/12/11 10:31:29;;;;;;;29.92;13.95;;;;;;;2.45;93.50;99562.38;5051083;28;20029;-70
2022/12/11 10:34:09;;;;;;;25.75;12.63;;;;;;;2.46;93.81;99547.47;5031182;28;20789;-71
2022/12/11 10:36:38;;;;;;;26.50;13.65;;;;;;;2.68;93.01;99544.66;4992968;28;1145945;-70
2022/12/11 10:39:13;;;;;;;29.65;13.98;;;;;;;2.72;93.23;99544.66;5032361;28;20037;-70
2022/12/11 10:41:42;;;;;;;29.63;13.02;;;;;;;2.84;93.19;99539.25;5032705;28;20079;-68
2022/12/11 10:44:37;;;;;;;24.02;12.30;;;;;;;2.83;92.38;99537.53;5032246;28;20095;-67
2022/12/11 10:47:10;;;;;;;23.50;12.68;;;;;;;2.80;91.95;99532.31;5020679;28;20567;-67
2022/12/11 10:49:37;;;;;;;22.48;11.75;;;;;;;2.83;91.94;99532.28;5031853;28;20042;-67
2022/12/11 10:52:22;;;;;;;27.25;13.18;;;;;;;2.88;91.88;99533.13;5034968;28;20041;-68
2022/12/11 10:55:16;;;;;;;28.98;14.10;;;;;;;2.82;92.03;99533.19;5051731;28;20573;-67
2022/12/11 10:57:42;;;;;;;26.58;13.80;;;;;;;2.90;91.69;99534.81;5031883;28;20037;-69
2022/12/11 11:00:45;;;;;;;26.88;13.18;;;;;;;2.90;91.64;99526.94;5031621;28;20037;-67
2022/12/11 11:03:23;;;;;;;30.63;14.70;;;;;;;2.75;91.05;99518.34;5033296;28;20527;-67
2022/12/11 11:05:49;;;;;;;29.98;13.68;;;;;;;2.77;91.28;99522.69;5031455;28;20084;-67
2022/12/11 11:08:18;;;;;;;29.85;14.48;;;;;;;2.92;90.67;99533.06;5030829;28;20037;-67
2022/12/11 11:10:58;;;;;;;34.85;14.80;;;;;;;3.01;91.44;99532.09;5048936;28;20488;-67
2022/12/11 11:13:29;;;;;;;34.83;16.35;;;;;;;3.02;90.92;99525.94;5050156;28;20028;-67
2022/12/11 11:16:08;;;;;;;26.77;14.57;;;;;;;3.07;90.75;99530.28;5038138;28;20677;-67
2022/12/11 11:18:34;;;;;;;29.98;15.48;;;;;;;2.97;90.44;99517.25;5030013;28;20037;-67
2022/12/11 11:21:00;;;;;;;31.88;16.02;;;;;;;3.06;90.57;99533.81;5033150;28;20017;-67
2022/12/11 11:23:27;;;;;;;28.17;13.45;;;;;;;3.16;90.57;99526.69;5031258;28;20115;-69
2022/12/11 11:26:00;;;;;;;28.63;13.00;;;;;;;3.27;90.76;99524.81;5031424;28;20108;-70
2022/12/11 11:28:34;;;;;;;25.15;14.23;;;;;;;3.32;90.30;99529.13;5033495;28;20112;-70
2022/12/11 11:31:18;;;;;;;28.23;13.00;;;;;;;3.34;90.08;99526.47;5031132;28;20044;-70
2022/12/11 11:33:59;;;;;;;27.77;14.57;;;;;;;3.24;89.41;99524.84;5039570;28;20048;-77
2022/12/11 11:36:27;;;;;;;30.20;16.15;;;;;;;3.19;89.76;99521.41;5049859;28;20124;-68
2022/12/11 11:39:26;;;;;;;26.58;14.40;;;;;;;3.05;89.42;99526.78;5047345;28;20095;-69
2022/12/11 11:41:59;;;;;;;28.90;15.15;;;;;;;2.97;89.68;99525.13;5052483;28;20485;-68
2022/12/11 11:44:51;;;;;;;30.97;16.23;;;;;;;3.03;90.21;99517.19;5049456;28;20129;-69
2022/12/11 11:47:27;;;;;;;35.17;16.52;;;;;;;3.15;90.07;99510.03;5004227;28;20277;-69
2022/12/11 11:50:12;;;;;;;42.35;16.73;;;;;;;3.12;90.18;99509.22;5014678;28;20037;-69
2022/12/11 11:52:47;;;;;;;33.88;16.65;;;;;;;3.06;90.38;99504.91;5039110;28;20049;-69
2022/12/11 11:55:34;;;;;;;26.35;13.82;;;;;;;3.09;90.78;99496.09;5039591;28;20043;-69
2022/12/11 11:58:16;;;;;;;30.67;14.10;;;;;;;3.17;91.03;99499.50;5043954;28;20060;-69
2022/12/11 12:00:42;;;;;;;30.52;15.40;;;;;;;3.22;91.30;99493.34;5041073;28;20032;-68
2022/12/11 12:03:11;;;;;;;33.10;16.35;;;;;;;3.18;91.01;99494.25;5041844;28;20033;-69
2022/12/11 12:05:54;;;;;;;28.48;15.10;;;;;;;3.01;90.47;99474.31;5041820;28;20033;-69
2022/12/11 12:08:26;;;;;;;29.90;14.23;;;;;;;3.07;90.73;99476.84;5045562;28;20021;-69
2022/12/11 12:11:09;;;;;;;35.08;15.80;;;;;;;3.04;90.70;99483.03;5046697;28;20291;-69
2022/12/11 12:13:49;;;;;;;32.20;15.48;;;;;;;3.21;91.22;99481.09;5046991;28;20060;-68
2022/12/11 12:16:26;;;;;;;33.10;15.18;;;;;;;3.10;90.29;99474.22;5047062;28;20052;-68
2022/12/11 12:19:05;;;;;;;34.75;15.60;;;;;;;3.14;90.24;99471.53;5065246;28;20096;-69
2022/12/11 12:21:37;;;;;;;31.85;14.35;;;;;;;3.11;89.17;99475.94;5069234;28;20032;-71
2022/12/11 12:24:20;;;;;;;29.05;13.77;;;;;;;3.14;89.43;99475.91;5054872;28;20033;-69
2022/12/11 12:27:05;;;;;;;30.40;14.15;;;;;;;3.24;89.50;99467.03;5048458;28;20026;-70
2022/12/11 12:29:46;;;;;;;28.90;14.10;;;;;;;3.34;89.57;99455.53;5053867;28;20052;-70
2022/12/11 12:32:47;;;;;;;31.13;15.20;;;;;;;3.47;89.50;99467.63;5066962;28;20055;-70
2022/12/11 12:35:33;;;;;;;29.60;14.48;;;;;;;3.59;89.45;99470.09;5054514;28;20037;-70